sensor_id;sensor_type;location;lat;lon;timestamp;P1;durP1;ratioP1;P2;durP2;ratioP2
60078;SDS011;45951;45.824;8.824;2023-04-05T00:05:43;8.65;;;5.22;;
60078;SDS011;45951;45.824;8.824;2023-04-05T00:11:44;6.57;;;4.30;;
60078;SDS011;45951;45.824;8.824;2023-04-05T00:17:45;7.57;;;4.20;;
60078;SDS011;45951;45.824;8.824;2023-04-05T00:23:46;7.70;;;4.72;;
60078;SDS011;45951;45.824;8.824;2023-04-05T00:29:47;8.30;;;4.28;;
60078;SDS011;45951;45.824;8.824;2023-04-05T00:35:48;7.93;;;4.25;;
60078;SDS011;45951;45.824;8.824;2023-04-05T00:41:48;6.95;;;4.20;;
60078;SDS011;45951;45.824;8.824;2023-04-05T00:47:48;7.25;;;4.18;;
60078;SDS011;45951;45.824;8.824;2023-04-05T00:53:48;7.20;;;4.00;;
60078;SDS011;45951;45.824;8.824;2023-04-05T00:59:51;5.95;;;3.42;;
60078;SDS011;45951;45.824;8.824;2023-04-05T01:06:03;6.10;;;3.75;;
60078;SDS011;45951;45.824;8.824;2023-04-05T01:12:17;6.00;;;3.80;;
60078;SDS011;45951;45.824;8.824;2023-04-05T01:18:18;7.82;;;3.92;;
60078;SDS011;45951;45.824;8.824;2023-04-05T01:30:31;7.97;;;3.92;;
60078;SDS011;45951;45.824;8.824;2023-04-05T01:36:39;8.00;;;3.90;;
60078;SDS011;45951;45.824;8.824;2023-04-05T01:42:42;6.03;;;3.63;;
60078;SDS011;45951;45.824;8.824;2023-04-05T01:48:44;6.30;;;3.83;;
60078;SDS011;45951;45.824;8.824;2023-04-05T01:54:44;8.13;;;4.22;;
60078;SDS011;45951;45.824;8.824;2023-04-05T02:00:44;6.70;;;3.78;;
60078;SDS011;45951;45.824;8.824;2023-04-05T02:06:44;6.75;;;3.80;;
60078;SDS011;45951;45.824;8.824;2023-04-05T02:12:45;6.73;;;3.30;;
60078;SDS011;45951;45.824;8.824;2023-04-05T02:18:45;7.60;;;3.42;;
60078;SDS011;45951;45.824;8.824;2023-04-05T02:24:49;5.85;;;3.38;;
60078;SDS011;45951;45.824;8.824;2023-04-05T02:30:50;5.50;;;3.40;;
60078;SDS011;45951;45.824;8.824;2023-04-05T02:36:50;4.93;;;3.00;;
60078;SDS011;45951;45.824;8.824;2023-04-05T02:42:51;5.55;;;3.25;;
60078;SDS011;45951;45.824;8.824;2023-04-05T02:48:51;5.43;;;3.33;;
60078;SDS011;45951;45.824;8.824;2023-04-05T02:54:51;4.72;;;2.90;;
60078;SDS011;45951;45.824;8.824;2023-04-05T03:00:52;7.97;;;3.20;;
60078;SDS011;45951;45.824;8.824;2023-04-05T03:06:53;6.88;;;3.47;;
60078;SDS011;45951;45.824;8.824;2023-04-05T03:12:56;6.05;;;3.30;;
60078;SDS011;45951;45.824;8.824;2023-04-05T03:18:56;6.78;;;2.95;;
60078;SDS011;45951;45.824;8.824;2023-04-05T03:24:56;5.13;;;3.30;;
60078;SDS011;45951;45.824;8.824;2023-04-05T03:30:57;5.60;;;2.95;;
60078;SDS011;45951;45.824;8.824;2023-04-05T03:36:57;6.85;;;2.90;;
60078;SDS011;45951;45.824;8.824;2023-04-05T03:42:58;5.57;;;2.92;;
60078;SDS011;45951;45.824;8.824;2023-04-05T03:48:59;9.15;;;3.17;;
60078;SDS011;45951;45.824;8.824;2023-04-05T03:54:59;6.80;;;2.83;;
60078;SDS011;45951;45.824;8.824;2023-04-05T04:01:00;5.20;;;2.80;;
60078;SDS011;45951;45.824;8.824;2023-04-05T04:07:00;7.27;;;3.30;;
60078;SDS011;45951;45.824;8.824;2023-04-05T04:13:01;5.03;;;2.97;;
60078;SDS011;45951;45.824;8.824;2023-04-05T04:19:01;8.03;;;4.00;;
60078;SDS011;45951;45.824;8.824;2023-04-05T04:25:01;5.97;;;3.25;;
60078;SDS011;45951;45.824;8.824;2023-04-05T04:31:03;5.60;;;2.97;;
60078;SDS011;45951;45.824;8.824;2023-04-05T04:37:04;11.90;;;3.22;;
60078;SDS011;45951;45.824;8.824;2023-04-05T04:49:16;7.22;;;3.83;;
60078;SDS011;45951;45.824;8.824;2023-04-05T04:55:18;7.82;;;3.10;;
60078;SDS011;45951;45.824;8.824;2023-04-05T05:01:24;6.95;;;3.47;;
60078;SDS011;45951;45.824;8.824;2023-04-05T05:07:25;7.45;;;3.25;;
60078;SDS011;45951;45.824;8.824;2023-04-05T05:13:25;6.45;;;2.92;;
60078;SDS011;45951;45.824;8.824;2023-04-05T05:19:26;5.60;;;3.53;;
60078;SDS011;45951;45.824;8.824;2023-04-05T05:25:27;10.73;;;3.90;;
60078;SDS011;45951;45.824;8.824;2023-04-05T05:31:28;11.18;;;4.07;;
60078;SDS011;45951;45.824;8.824;2023-04-05T05:37:30;7.40;;;3.60;;
60078;SDS011;45951;45.824;8.824;2023-04-05T05:43:31;9.02;;;3.25;;
60078;SDS011;45951;45.824;8.824;2023-04-05T05:49:31;12.43;;;4.18;;
60078;SDS011;45951;45.824;8.824;2023-04-05T05:55:31;10.63;;;3.70;;
60078;SDS011;45951;45.824;8.824;2023-04-05T06:01:32;9.98;;;3.85;;
60078;SDS011;45951;45.824;8.824;2023-04-05T06:07:36;10.70;;;4.40;;
60078;SDS011;45951;45.824;8.824;2023-04-05T06:13:37;16.00;;;4.97;;
60078;SDS011;45951;45.824;8.824;2023-04-05T06:19:37;17.02;;;4.80;;
60078;SDS011;45951;45.824;8.824;2023-04-05T06:25:37;9.02;;;4.70;;
60078;SDS011;45951;45.824;8.824;2023-04-05T06:31:38;7.32;;;4.15;;
60078;SDS011;45951;45.824;8.824;2023-04-05T06:37:40;8.95;;;4.80;;
60078;SDS011;45951;45.824;8.824;2023-04-05T06:43:40;7.10;;;4.35;;
60078;SDS011;45951;45.824;8.824;2023-04-05T06:49:41;14.55;;;5.43;;
60078;SDS011;45951;45.824;8.824;2023-04-05T06:55:41;8.35;;;3.92;;
60078;SDS011;45951;45.824;8.824;2023-04-05T07:01:41;9.40;;;5.10;;
60078;SDS011;45951;45.824;8.824;2023-04-05T07:07:42;8.13;;;4.32;;
60078;SDS011;45951;45.824;8.824;2023-04-05T07:13:44;6.22;;;3.90;;
60078;SDS011;45951;45.824;8.824;2023-04-05T07:19:45;7.05;;;4.05;;
60078;SDS011;45951;45.824;8.824;2023-04-05T07:25:45;7.47;;;4.30;;
60078;SDS011;45951;45.824;8.824;2023-04-05T07:31:45;5.40;;;2.75;;
60078;SDS011;45951;45.824;8.824;2023-04-05T07:37:46;20.38;;;7.93;;
60078;SDS011;45951;45.824;8.824;2023-04-05T07:43:46;4.65;;;3.10;;
60078;SDS011;45951;45.824;8.824;2023-04-05T07:49:46;6.65;;;4.10;;
60078;SDS011;45951;45.824;8.824;2023-04-05T07:55:47;5.40;;;3.50;;
60078;SDS011;45951;45.824;8.824;2023-04-05T08:01:48;9.63;;;4.15;;
60078;SDS011;45951;45.824;8.824;2023-04-05T08:07:49;5.40;;;2.80;;
60078;SDS011;45951;45.824;8.824;2023-04-05T08:13:49;7.05;;;4.03;;
60078;SDS011;45951;45.824;8.824;2023-04-05T08:19:49;7.35;;;4.05;;
60078;SDS011;45951;45.824;8.824;2023-04-05T08:25:51;12.32;;;4.85;;
60078;SDS011;45951;45.824;8.824;2023-04-05T08:31:55;6.43;;;4.22;;
60078;SDS011;45951;45.824;8.824;2023-04-05T08:37:56;7.68;;;4.30;;
60078;SDS011;45951;45.824;8.824;2023-04-05T08:44:00;8.57;;;4.40;;
60078;SDS011;45951;45.824;8.824;2023-04-05T08:50:02;6.82;;;4.15;;
60078;SDS011;45951;45.824;8.824;2023-04-05T08:56:03;15.07;;;5.45;;
60078;SDS011;45951;45.824;8.824;2023-04-05T09:02:05;10.60;;;5.07;;
60078;SDS011;45951;45.824;8.824;2023-04-05T09:08:08;7.00;;;4.20;;
60078;SDS011;45951;45.824;8.824;2023-04-05T09:14:08;12.35;;;5.15;;
60078;SDS011;45951;45.824;8.824;2023-04-05T09:20:10;20.40;;;7.22;;
60078;SDS011;45951;45.824;8.824;2023-04-05T09:26:19;11.45;;;4.75;;
60078;SDS011;45951;45.824;8.824;2023-04-05T09:32:24;19.45;;;6.60;;
60078;SDS011;45951;45.824;8.824;2023-04-05T09:38:40;9.85;;;5.05;;
60078;SDS011;45951;45.824;8.824;2023-04-05T09:44:51;6.15;;;4.35;;
60078;SDS011;45951;45.824;8.824;2023-04-05T09:51:03;7.53;;;3.90;;
60078;SDS011;45951;45.824;8.824;2023-04-05T09:57:04;6.68;;;3.90;;
60078;SDS011;45951;45.824;8.824;2023-04-05T10:03:05;5.78;;;4.18;;
60078;SDS011;45951;45.824;8.824;2023-04-05T10:09:06;7.27;;;4.80;;
60078;SDS011;45951;45.824;8.824;2023-04-05T10:15:08;7.50;;;4.45;;
60078;SDS011;45951;45.824;8.824;2023-04-05T10:21:10;8.73;;;4.75;;
60078;SDS011;45951;45.824;8.824;2023-04-05T10:27:34;7.63;;;4.80;;
60078;SDS011;45951;45.824;8.824;2023-04-05T10:33:38;7.50;;;4.47;;
60078;SDS011;45951;45.824;8.824;2023-04-05T10:39:41;7.65;;;4.50;;
60078;SDS011;45951;45.824;8.824;2023-04-05T10:45:45;7.07;;;4.40;;
60078;SDS011;45951;45.824;8.824;2023-04-05T10:51:47;6.70;;;4.78;;
60078;SDS011;45951;45.824;8.824;2023-04-05T10:57:47;6.67;;;4.57;;
60078;SDS011;45951;45.824;8.824;2023-04-05T11:03:51;7.22;;;4.90;;
60078;SDS011;45951;45.824;8.824;2023-04-05T11:10:01;11.65;;;5.05;;
60078;SDS011;45951;45.824;8.824;2023-04-05T11:16:09;6.82;;;4.68;;
60078;SDS011;45951;45.824;8.824;2023-04-05T11:22:10;7.43;;;5.13;;
60078;SDS011;45951;45.824;8.824;2023-04-05T11:28:33;9.40;;;5.15;;
60078;SDS011;45951;45.824;8.824;2023-04-05T11:34:40;7.80;;;5.13;;
60078;SDS011;45951;45.824;8.824;2023-04-05T11:40:41;9.05;;;5.75;;
60078;SDS011;45951;45.824;8.824;2023-04-05T11:46:42;10.37;;;5.90;;
60078;SDS011;45951;45.824;8.824;2023-04-05T11:52:42;9.93;;;6.40;;
60078;SDS011;45951;45.824;8.824;2023-04-05T11:58:43;8.77;;;4.60;;
60078;SDS011;45951;45.824;8.824;2023-04-05T12:04:43;12.77;;;6.93;;
60078;SDS011;45951;45.824;8.824;2023-04-05T12:10:43;8.60;;;6.45;;
60078;SDS011;45951;45.824;8.824;2023-04-05T12:16:47;11.00;;;6.70;;
60078;SDS011;45951;45.824;8.824;2023-04-05T12:22:52;10.27;;;6.85;;
60078;SDS011;45951;45.824;8.824;2023-04-05T12:34:57;9.68;;;6.18;;
60078;SDS011;45951;45.824;8.824;2023-04-05T12:40:58;9.70;;;6.07;;
60078;SDS011;45951;45.824;8.824;2023-04-05T12:47:00;15.35;;;7.72;;
60078;SDS011;45951;45.824;8.824;2023-04-05T12:53:08;10.48;;;6.63;;
60078;SDS011;45951;45.824;8.824;2023-04-05T12:59:08;10.48;;;6.07;;
60078;SDS011;45951;45.824;8.824;2023-04-05T13:05:08;12.63;;;7.53;;
60078;SDS011;45951;45.824;8.824;2023-04-05T13:11:09;9.17;;;6.00;;
60078;SDS011;45951;45.824;8.824;2023-04-05T13:17:10;10.18;;;6.65;;
60078;SDS011;45951;45.824;8.824;2023-04-05T13:23:10;9.83;;;6.47;;
60078;SDS011;45951;45.824;8.824;2023-04-05T13:29:11;9.52;;;6.90;;
60078;SDS011;45951;45.824;8.824;2023-04-05T13:35:12;9.05;;;6.45;;
60078;SDS011;45951;45.824;8.824;2023-04-05T13:41:12;10.32;;;6.15;;
60078;SDS011;45951;45.824;8.824;2023-04-05T13:47:14;12.15;;;7.15;;
60078;SDS011;45951;45.824;8.824;2023-04-05T13:53:15;11.03;;;6.60;;
60078;SDS011;45951;45.824;8.824;2023-04-05T13:59:15;10.00;;;7.13;;
60078;SDS011;45951;45.824;8.824;2023-04-05T14:05:16;10.27;;;6.87;;
60078;SDS011;45951;45.824;8.824;2023-04-05T14:11:17;10.57;;;6.85;;
60078;SDS011;45951;45.824;8.824;2023-04-05T14:17:17;12.47;;;7.00;;
60078;SDS011;45951;45.824;8.824;2023-04-05T14:23:18;11.17;;;7.10;;
60078;SDS011;45951;45.824;8.824;2023-04-05T14:29:18;9.77;;;6.80;;
60078;SDS011;45951;45.824;8.824;2023-04-05T14:35:18;11.85;;;7.18;;
60078;SDS011;45951;45.824;8.824;2023-04-05T14:41:19;9.07;;;6.10;;
60078;SDS011;45951;45.824;8.824;2023-04-05T14:47:19;11.45;;;9.15;;
60078;SDS011;45951;45.824;8.824;2023-04-05T14:53:20;9.63;;;7.30;;
60078;SDS011;45951;45.824;8.824;2023-04-05T14:59:20;13.15;;;8.27;;
60078;SDS011;45951;45.824;8.824;2023-04-05T15:05:21;18.95;;;8.52;;
60078;SDS011;45951;45.824;8.824;2023-04-05T15:11:21;11.05;;;7.50;;
60078;SDS011;45951;45.824;8.824;2023-04-05T15:17:21;13.30;;;7.82;;
60078;SDS011;45951;45.824;8.824;2023-04-05T15:23:22;10.87;;;7.00;;
60078;SDS011;45951;45.824;8.824;2023-04-05T15:29:22;9.27;;;7.53;;
60078;SDS011;45951;45.824;8.824;2023-04-05T15:35:22;10.73;;;6.45;;
60078;SDS011;45951;45.824;8.824;2023-04-05T15:41:23;9.75;;;7.45;;
60078;SDS011;45951;45.824;8.824;2023-04-05T15:47:23;11.02;;;7.78;;
60078;SDS011;45951;45.824;8.824;2023-04-05T15:53:23;9.73;;;7.95;;
60078;SDS011;45951;45.824;8.824;2023-04-05T15:59:24;11.75;;;7.35;;
60078;SDS011;45951;45.824;8.824;2023-04-05T16:05:24;11.98;;;7.65;;
60078;SDS011;45951;45.824;8.824;2023-04-05T16:11:25;9.15;;;6.75;;
60078;SDS011;45951;45.824;8.824;2023-04-05T16:17:25;11.10;;;8.63;;
60078;SDS011;45951;45.824;8.824;2023-04-05T16:23:26;10.70;;;8.25;;
60078;SDS011;45951;45.824;8.824;2023-04-05T16:29:27;9.82;;;7.05;;
60078;SDS011;45951;45.824;8.824;2023-04-05T16:35:27;11.75;;;8.48;;
60078;SDS011;45951;45.824;8.824;2023-04-05T16:41:27;10.40;;;8.07;;
60078;SDS011;45951;45.824;8.824;2023-04-05T16:47:28;14.13;;;8.07;;
60078;SDS011;45951;45.824;8.824;2023-04-05T16:53:28;10.30;;;8.40;;
60078;SDS011;45951;45.824;8.824;2023-04-05T16:59:28;11.27;;;8.87;;
60078;SDS011;45951;45.824;8.824;2023-04-05T17:05:29;14.70;;;8.50;;
60078;SDS011;45951;45.824;8.824;2023-04-05T17:11:30;11.70;;;8.60;;
60078;SDS011;45951;45.824;8.824;2023-04-05T17:17:30;9.93;;;7.93;;
60078;SDS011;45951;45.824;8.824;2023-04-05T17:23:30;10.20;;;6.90;;
60078;SDS011;45951;45.824;8.824;2023-04-05T17:29:31;14.35;;;8.65;;
60078;SDS011;45951;45.824;8.824;2023-04-05T17:35:32;12.63;;;8.17;;
60078;SDS011;45951;45.824;8.824;2023-04-05T17:41:32;11.63;;;7.43;;
60078;SDS011;45951;45.824;8.824;2023-04-05T17:47:32;12.00;;;8.60;;
60078;SDS011;45951;45.824;8.824;2023-04-05T17:53:33;11.33;;;8.50;;
60078;SDS011;45951;45.824;8.824;2023-04-05T17:59:33;14.38;;;8.07;;
60078;SDS011;45951;45.824;8.824;2023-04-05T18:05:34;12.90;;;9.13;;
60078;SDS011;45951;45.824;8.824;2023-04-05T18:11:34;13.60;;;8.70;;
60078;SDS011;45951;45.824;8.824;2023-04-05T18:17:35;13.60;;;8.30;;
60078;SDS011;45951;45.824;8.824;2023-04-05T18:23:36;15.88;;;10.93;;
60078;SDS011;45951;45.824;8.824;2023-04-05T18:29:36;11.77;;;8.60;;
60078;SDS011;45951;45.824;8.824;2023-04-05T18:35:37;13.07;;;8.60;;
60078;SDS011;45951;45.824;8.824;2023-04-05T18:41:38;12.40;;;8.18;;
60078;SDS011;45951;45.824;8.824;2023-04-05T18:47:38;12.37;;;9.03;;
60078;SDS011;45951;45.824;8.824;2023-04-05T18:53:38;13.50;;;9.32;;
60078;SDS011;45951;45.824;8.824;2023-04-05T18:59:39;14.75;;;8.95;;
60078;SDS011;45951;45.824;8.824;2023-04-05T19:05:39;13.60;;;8.80;;
60078;SDS011;45951;45.824;8.824;2023-04-05T19:11:40;16.87;;;8.77;;
60078;SDS011;45951;45.824;8.824;2023-04-05T19:17:40;18.25;;;9.30;;
60078;SDS011;45951;45.824;8.824;2023-04-05T19:23:40;16.92;;;9.93;;
60078;SDS011;45951;45.824;8.824;2023-04-05T19:29:42;16.00;;;9.57;;
60078;SDS011;45951;45.824;8.824;2023-04-05T19:35:42;16.65;;;10.23;;
60078;SDS011;45951;45.824;8.824;2023-04-05T19:41:42;20.15;;;10.68;;
60078;SDS011;45951;45.824;8.824;2023-04-05T19:47:44;15.77;;;10.63;;
60078;SDS011;45951;45.824;8.824;2023-04-05T19:53:47;16.95;;;10.25;;
60078;SDS011;45951;45.824;8.824;2023-04-05T19:59:48;16.55;;;10.55;;
60078;SDS011;45951;45.824;8.824;2023-04-05T20:12:04;18.95;;;10.23;;
60078;SDS011;45951;45.824;8.824;2023-04-05T20:18:05;15.73;;;9.88;;
60078;SDS011;45951;45.824;8.824;2023-04-05T20:24:07;18.63;;;10.30;;
60078;SDS011;45951;45.824;8.824;2023-04-05T20:30:08;16.27;;;10.68;;
60078;SDS011;45951;45.824;8.824;2023-04-05T20:36:10;13.93;;;9.73;;
60078;SDS011;45951;45.824;8.824;2023-04-05T20:42:11;17.27;;;10.25;;
60078;SDS011;45951;45.824;8.824;2023-04-05T20:48:11;15.77;;;10.38;;
60078;SDS011;45951;45.824;8.824;2023-04-05T20:54:12;17.23;;;11.27;;
60078;SDS011;45951;45.824;8.824;2023-04-05T21:00:12;16.02;;;10.98;;
60078;SDS011;45951;45.824;8.824;2023-04-05T21:06:14;16.50;;;10.27;;
60078;SDS011;45951;45.824;8.824;2023-04-05T21:12:14;14.35;;;9.93;;
60078;SDS011;45951;45.824;8.824;2023-04-05T21:18:15;15.48;;;9.93;;
60078;SDS011;45951;45.824;8.824;2023-04-05T21:24:15;16.03;;;11.03;;
60078;SDS011;45951;45.824;8.824;2023-04-05T21:30:16;15.45;;;10.20;;
60078;SDS011;45951;45.824;8.824;2023-04-05T21:36:16;17.08;;;10.02;;
60078;SDS011;45951;45.824;8.824;2023-04-05T21:42:17;16.10;;;9.57;;
60078;SDS011;45951;45.824;8.824;2023-04-05T21:48:17;15.57;;;10.38;;
60078;SDS011;45951;45.824;8.824;2023-04-05T21:54:18;14.02;;;9.70;;
60078;SDS011;45951;45.824;8.824;2023-04-05T22:00:18;15.18;;;10.43;;
60078;SDS011;45951;45.824;8.824;2023-04-05T22:06:19;15.68;;;9.68;;
60078;SDS011;45951;45.824;8.824;2023-04-05T22:12:19;14.57;;;9.13;;
60078;SDS011;45951;45.824;8.824;2023-04-05T22:18:21;14.82;;;10.05;;
60078;SDS011;45951;45.824;8.824;2023-04-05T22:24:24;15.13;;;10.30;;
60078;SDS011;45951;45.824;8.824;2023-04-05T22:30:25;14.63;;;9.15;;
60078;SDS011;45951;45.824;8.824;2023-04-05T22:36:26;14.15;;;9.30;;
60078;SDS011;45951;45.824;8.824;2023-04-05T22:42:27;16.98;;;10.07;;
60078;SDS011;45951;45.824;8.824;2023-04-05T22:48:27;18.40;;;10.03;;
60078;SDS011;45951;45.824;8.824;2023-04-05T22:54:27;15.02;;;8.63;;
60078;SDS011;45951;45.824;8.824;2023-04-05T23:00:28;16.47;;;10.43;;
60078;SDS011;45951;45.824;8.824;2023-04-05T23:06:28;16.48;;;9.50;;
60078;SDS011;45951;45.824;8.824;2023-04-05T23:12:29;15.60;;;9.03;;
60078;SDS011;45951;45.824;8.824;2023-04-05T23:18:29;15.70;;;9.50;;
60078;SDS011;45951;45.824;8.824;2023-04-05T23:24:29;12.60;;;8.50;;
60078;SDS011;45951;45.824;8.824;2023-04-05T23:30:30;18.77;;;9.25;;
60078;SDS011;45951;45.824;8.824;2023-04-05T23:36:30;12.40;;;8.75;;
60078;SDS011;45951;45.824;8.824;2023-04-05T23:42:31;12.43;;;8.40;;
60078;SDS011;45951;45.824;8.824;2023-04-05T23:48:31;13.55;;;8.90;;
60078;SDS011;45951;45.824;8.824;2023-04-05T23:54:32;13.17;;;8.97;;
